createdAt,value
2023-02-13T00:01:40.900Z,99940.69
2023-02-13T00:06:42.351Z,99939.94
2023-02-13T00:11:43.776Z,99924.88
2023-02-13T00:16:45.204Z,99923.09
2023-02-13T00:21:46.647Z,99919.59
2023-02-13T00:26:48.109Z,99913.41
2023-02-13T00:31:49.866Z,99919.69
2023-02-13T00:36:51.333Z,99916.25
2023-02-13T00:41:52.755Z,99918.41
2023-02-13T00:46:54.331Z,99918.63
2023-02-13T00:51:55.751Z,99922.19
2023-02-13T00:56:57.151Z,99917.78
2023-02-13T01:01:58.608Z,99928.38
2023-02-13T01:07:00.160Z,99925.94
2023-02-13T01:12:01.685Z,99932.09
2023-02-13T01:17:03.154Z,99934.75
2023-02-13T01:22:04.634Z,99925.31
2023-02-13T01:27:06.143Z,99929.09
2023-02-13T01:32:07.651Z,99936.84
2023-02-13T01:37:09.099Z,99927.19
2023-02-13T01:42:17.429Z,99920.72
2023-02-13T01:47:45.280Z,99915.53
2023-02-13T01:53:20.224Z,99914.69
2023-02-13T01:58:27.974Z,99907.66
2023-02-13T02:03:41.619Z,99905.66
2023-02-13T02:08:49.669Z,99903.88
2023-02-13T02:13:57.390Z,99892.31
2023-02-13T02:19:15.875Z,99899.50
2023-02-13T02:24:39.101Z,99892.94
2023-02-13T02:30:18.548Z,99894.63
2023-02-13T02:35:45.532Z,99896.34
2023-02-13T02:41:41.388Z,99899.00
2023-02-13T02:47:27.392Z,99887.41
2023-02-13T02:52:53.537Z,99896.13
2023-02-13T02:58:37.914Z,99898.56
2023-02-13T03:03:58.586Z,99901.22
2023-02-13T03:09:22.321Z,99898.66
2023-02-13T03:14:27.138Z,99899.00
2023-02-13T03:19:59.065Z,99894.81
2023-02-13T03:25:06.629Z,99902.78
2023-02-13T03:30:24.696Z,99894.81
2023-02-13T03:35:56.760Z,99907.16
2023-02-13T03:41:20.642Z,99904.38
2023-02-13T03:46:24.408Z,99916.88
2023-02-13T03:51:36.191Z,99911.78
2023-02-13T03:57:00.903Z,99909.47
2023-02-13T04:02:13.464Z,99905.00
2023-02-13T04:07:29.248Z,99913.81
2023-02-13T04:12:52.414Z,99914.13
2023-02-13T04:18:04.931Z,99911.56
2023-02-13T04:23:08.734Z,99907.97
2023-02-13T04:28:10.404Z,99914.22
2023-02-13T04:33:11.921Z,99909.03
2023-02-13T04:38:13.343Z,99910.94
2023-02-13T04:43:14.760Z,99912.19
2023-02-13T04:48:16.234Z,99905.19
2023-02-13T04:53:17.637Z,99899.88
2023-02-13T04:58:19.396Z,99893.84
2023-02-13T05:03:20.871Z,99902.88
2023-02-13T05:08:22.284Z,99894.16
2023-02-13T05:13:23.832Z,99895.84
2023-02-13T05:18:25.376Z,99896.06
2023-02-13T05:23:26.872Z,99894.44
2023-02-13T05:28:47.393Z,99900.50
2023-02-13T05:33:48.876Z,99898.81
2023-02-13T05:38:50.318Z,99900.91
2023-02-13T05:43:51.722Z,99911.72
2023-02-13T05:48:53.214Z,99901.31
2023-02-13T05:53:54.683Z,99902.16
2023-02-13T05:58:56.660Z,99907.66
2023-02-13T06:03:59.618Z,99905.34
2023-02-13T06:09:01.923Z,99906.63
2023-02-13T06:14:03.415Z,99906.22
2023-02-13T06:19:04.921Z,99908.78
2023-02-13T06:24:07.974Z,99910.25
2023-02-13T06:29:09.375Z,99910.25
2023-02-13T06:34:11.044Z,99916.19
2023-02-13T06:39:12.609Z,99926.59
2023-02-13T06:44:14.140Z,99931.91
2023-02-13T06:49:15.722Z,99939.31
2023-02-13T06:54:17.145Z,99942.06
2023-02-13T06:59:18.571Z,99946.31
2023-02-13T07:04:19.976Z,99946.97
2023-02-13T07:09:21.381Z,99945.34
2023-02-13T07:14:22.879Z,99957.56
2023-02-13T07:19:24.367Z,99949.28
2023-02-13T07:24:25.782Z,99954.50
2023-02-13T07:29:27.646Z,99956.97
2023-02-13T07:34:29.208Z,99958.75
2023-02-13T07:39:31.641Z,99957.81
2023-02-13T07:44:33.261Z,99950.59
2023-02-13T07:49:36.841Z,99951.88
2023-02-13T07:54:46.989Z,99957.06
2023-02-13T07:59:48.408Z,99956.63
2023-02-13T08:04:49.881Z,99959.69
2023-02-13T08:10:09.875Z,99964.78
2023-02-13T08:15:15.669Z,99965.00
2023-02-13T08:20:17.264Z,99960.31
2023-02-13T08:25:19.598Z,99962.81
2023-02-13T08:30:21.177Z,99966.81
2023-02-13T08:35:26.628Z,99967.69
2023-02-13T08:40:28.191Z,99972.03
2023-02-13T08:45:30.814Z,99976.81
2023-02-13T08:50:32.357Z,99986.81
2023-02-13T08:55:34.203Z,99985.13
2023-02-13T09:00:35.855Z,99979.09
2023-02-13T09:05:37.314Z,99977.13
2023-02-13T09:10:39.344Z,99987.59
2023-02-13T09:15:41.704Z,99986.84
2023-02-13T09:20:43.126Z,99990.19
2023-02-13T09:25:44.550Z,99995.06
2023-02-13T09:30:46.175Z,99994.97
2023-02-13T09:35:47.747Z,99984.78
2023-02-13T09:40:53.836Z,99993.28
2023-02-13T09:45:59.954Z,99987.78
2023-02-13T09:51:01.773Z,99995.81
2023-02-13T09:56:35.730Z,99998.84
2023-02-13T10:01:44.020Z,100000.31
2023-02-13T10:06:50.295Z,100009.66
2023-02-13T10:12:13.668Z,100005.63
2023-02-13T10:17:24.514Z,100004.72
2023-02-13T10:22:33.044Z,100006.09
2023-02-13T10:27:38.934Z,99996.31
2023-02-13T10:33:18.738Z,99992.81
2023-02-13T10:38:22.199Z,99985.25
2023-02-13T10:43:29.179Z,99984.22
2023-02-13T10:49:08.367Z,99985.78
2023-02-13T10:54:24.820Z,99961.47
2023-02-13T10:59:44.826Z,99964.47
2023-02-13T11:04:46.663Z,99958.31
2023-02-13T11:09:51.042Z,99955.94
2023-02-13T11:14:58.638Z,99944.22
2023-02-13T11:20:02.856Z,99954.13
2023-02-13T11:25:19.913Z,99951.91
2023-02-13T11:30:36.280Z,99949.91
2023-02-13T11:35:38.063Z,99948.75
2023-02-13T11:40:40.817Z,99945.13
2023-02-13T11:45:42.250Z,99942.47
2023-02-13T11:50:46.121Z,99939.19
2023-02-13T11:56:01.548Z,99919.19
2023-02-13T12:01:28.302Z,99921.28
2023-02-13T12:06:29.912Z,99927.19
2023-02-13T12:11:51.741Z,99919.13
2023-02-13T12:17:07.091Z,99926.25
2023-02-13T12:22:20.970Z,99912.53
2023-02-13T12:27:35.530Z,99912.78
2023-02-13T12:33:03.431Z,99902.78
2023-02-13T12:38:40.176Z,99900.38
2023-02-13T12:44:17.172Z,99891.94
2023-02-13T12:49:36.670Z,99889.53
2023-02-13T12:55:02.437Z,99882.47
2023-02-13T13:00:29.564Z,99883.81
2023-02-13T13:05:50.701Z,99886.19
2023-02-13T13:11:26.191Z,99891.84
2023-02-13T13:16:38.174Z,99885.00
2023-02-13T13:21:52.617Z,99882.88
2023-02-13T13:26:57.593Z,99878.44
2023-02-13T13:32:07.082Z,99881.91
2023-02-13T13:37:50.111Z,99873.66
2023-02-13T13:43:12.806Z,99889.44
2023-02-13T13:48:40.424Z,99897.66
2023-02-13T13:54:00.285Z,99884.59
2023-02-13T13:59:01.721Z,99887.31
2023-02-13T14:04:24.335Z,99884.44
2023-02-13T14:09:43.158Z,99892.31
2023-02-13T14:14:45.098Z,99894.81
2023-02-13T14:19:52.742Z,99905.63
2023-02-13T14:24:56.629Z,99907.03
2023-02-13T14:29:59.413Z,99902.88
2023-02-13T14:35:05.830Z,99891.53
2023-02-13T14:40:11.538Z,99881.25
2023-02-13T14:45:20.671Z,99876.81
2023-02-13T14:50:28.691Z,99885.28
2023-02-13T14:55:40.267Z,99881.06
2023-02-13T15:00:49.602Z,99862.78
2023-02-13T15:05:57.789Z,99866.00
2023-02-13T15:10:59.431Z,99868.09
2023-02-13T15:16:06.860Z,99849.88
2023-02-13T15:21:16.207Z,99837.66
2023-02-13T15:26:23.820Z,99833.41
2023-02-13T15:31:25.484Z,99839.56
2023-02-13T15:36:40.126Z,99831.31
2023-02-13T15:41:45.906Z,99828.66
2023-02-13T15:46:49.005Z,99830.13
2023-02-13T15:51:51.064Z,99826.19
2023-02-13T15:56:55.759Z,99826.50
2023-02-13T16:01:58.902Z,99840.59
2023-02-13T16:07:00.922Z,99861.38
2023-02-13T16:12:06.279Z,99855.31
2023-02-13T16:17:18.280Z,99844.50
2023-02-13T16:22:45.273Z,99833.69
2023-02-13T16:27:48.664Z,99837.22
2023-02-13T16:32:50.139Z,99846.44
2023-02-13T16:37:56.200Z,99838.16
2023-02-13T16:43:35.167Z,99850.38
2023-02-13T16:48:37.064Z,99837.03
2023-02-13T16:53:38.938Z,99848.34
2023-02-13T16:58:41.071Z,99842.13
2023-02-13T17:03:42.525Z,99834.16
2023-02-13T17:08:44.038Z,99839.47
2023-02-13T17:13:45.437Z,99830.75
2023-02-13T17:18:46.843Z,99830.97
2023-02-13T17:23:48.275Z,99836.47
2023-02-13T17:28:49.691Z,99816.97
2023-02-13T17:33:51.420Z,99815.28
2023-02-13T17:38:53.485Z,99816.97
2023-02-13T17:43:55.012Z,99819.41
2023-02-13T17:48:56.424Z,99812.31
2023-02-13T17:53:58.086Z,99806.16
2023-02-13T17:58:59.513Z,99824.63
2023-02-13T18:04:01.110Z,99834.16
2023-02-13T18:09:02.703Z,99820.91
2023-02-13T18:14:04.178Z,99821.63
2023-02-13T18:19:05.827Z,99809.34
2023-02-13T18:24:08.641Z,99814.84
2023-02-13T18:29:10.061Z,99834.78
2023-02-13T18:34:11.618Z,99819.94
2023-02-13T18:39:13.465Z,99831.38
2023-02-13T18:44:26.984Z,99829.91
2023-02-13T18:49:29.440Z,99833.59
2023-02-13T18:54:31.032Z,99828.19
2023-02-13T18:59:32.480Z,99807.94
2023-02-13T19:04:35.685Z,99804.44
2023-02-13T19:09:40.148Z,99805.28
2023-02-13T19:14:41.602Z,99792.81
2023-02-13T19:19:46.347Z,99794.50
2023-02-13T19:24:47.833Z,99801.47
2023-02-13T19:29:49.328Z,99805.09
2023-02-13T19:34:50.810Z,99800.63
2023-02-13T19:39:53.396Z,99790.34
2023-02-13T19:44:54.962Z,99800.19
2023-02-13T19:49:56.385Z,99808.78
2023-02-13T19:54:57.922Z,99822.44
2023-02-13T20:00:01.772Z,99839.38
2023-02-13T20:05:13.777Z,99838.53
2023-02-13T20:10:15.349Z,99830.59
2023-02-13T20:15:16.873Z,99837.06
2023-02-13T20:20:18.616Z,99836.22
2023-02-13T20:25:21.962Z,99832.16
2023-02-13T20:30:23.529Z,99835.78
2023-02-13T20:35:25.051Z,99841.59
2023-02-13T20:40:26.701Z,99850.19
2023-02-13T20:45:28.192Z,99849.13
2023-02-13T20:50:29.659Z,99851.09
2023-02-13T20:55:31.209Z,99849.81
2023-02-13T21:00:32.719Z,99850.47
2023-02-13T21:05:34.197Z,99846.75
2023-02-13T21:10:37.914Z,99842.19
2023-02-13T21:15:39.432Z,99845.81
2023-02-13T21:20:40.856Z,99843.16
2023-02-13T21:25:42.435Z,99853.97
2023-02-13T21:30:43.892Z,99847.69
2023-02-13T21:35:45.362Z,99844.09
2023-02-13T21:40:46.778Z,99853.41
2023-02-13T21:45:48.439Z,99853.41
2023-02-13T21:50:50.085Z,99849.28
2023-02-13T21:55:51.487Z,99848.53
2023-02-13T22:00:52.920Z,99846.44
2023-02-13T22:05:54.338Z,99853.84
2023-02-13T22:10:58.029Z,99840.19
2023-02-13T22:16:01.708Z,99851.75
2023-02-13T22:21:16.204Z,99852.38
2023-02-13T22:26:20.433Z,99857.47
2023-02-13T22:31:25.413Z,99857.47
2023-02-13T22:36:27.378Z,99868.91
2023-02-13T22:41:28.930Z,99880.28
2023-02-13T22:46:32.320Z,99866.91
2023-02-13T22:51:35.978Z,99873.19
2023-02-13T22:56:37.400Z,99871.28
2023-02-13T23:01:39.717Z,99886.00
2023-02-13T23:06:41.267Z,99880.72
2023-02-13T23:12:01.122Z,99883.16
2023-02-13T23:17:21.036Z,99886.22
2023-02-13T23:22:22.587Z,99891.25
2023-02-13T23:27:23.982Z,99888.59
2023-02-13T23:32:25.495Z,99896.53
2023-02-13T23:37:26.908Z,99888.69
2023-02-13T23:42:28.786Z,99886.22
2023-02-13T23:47:30.189Z,99880.06
2023-02-13T23:52:31.620Z,99881.25
2023-02-13T23:57:33.041Z,99883.78
